^^
Station Historical Data
 
Daily Summary for July 05, 2020 Units:  English    Metric   Both
Daily Weekly Monthly Yearly Custom
  Current: High: Low: Average:
Temperature: 70 °F 90 °F 57.2 °F 74.1 °F
Dew Point: 50 °F 53.2 °F 40.2 °F 48.9 °F
Humidity: 49% 72% 21.3% 45%
Wind Speed: 3.5mph 20mph 1.3mph 6.7mph
Wind Gust: 5mph 23mph - -
WindWNW - - SW
Pressure: 30.12 in 30.15 in 30.07 in -
Precipitation: 0.00 in      
Historical Graphs
 
 
Tabular Data for July 05, 2020
Time Temperature Dew Point Pressure Wind Wind Speed Wind Gust Humidity Rainfall Rate (Hourly) solar
00:04 61.5 °F 51.3 °F 30.15 in WSW 6.4 mph 7 mph 69.4% 0.00 in 0 W/m2
00:09 62 °F 52.9 °F 30.14 in SW 9.4 mph 9 mph 72% 0.00 in 0 W/m2
00:14 62.7 °F 53.2 °F 30.14 in WSW 7 mph 10 mph 71% 0.00 in 0 W/m2
00:19 63 °F 53.1 °F 30.14 in WSW 6.7 mph 9 mph 70% 0.00 in 0 W/m2
00:24 63.2 °F 53 °F 30.13 in West 5.9 mph 7 mph 69.2% 0.00 in 0 W/m2
00:29 63.4 °F 53 °F 30.13 in WSW 5.9 mph 8 mph 69% 0.00 in 0 W/m2
00:34 63.4 °F 53 °F 30.13 in West 2.2 mph 7 mph 69% 0.00 in 0 W/m2
00:39 63.4 °F 53 °F 30.13 in WNW 2.8 mph 3 mph 69% 0.00 in 0 W/m2
00:44 63.2 °F 52.9 °F 30.13 in NW 3.1 mph 3 mph 69% 0.00 in 0 W/m2
00:49 62.9 °F 52.6 °F 30.12 in WNW 4.6 mph 4.5 mph 69% 0.00 in 0 W/m2
00:54 62.6 °F 52.3 °F 30.12 in West 6 mph 6.1 mph 69% 0.00 in 0 W/m2
00:59 62.6 °F 52.2 °F 30.12 in West 5.7 mph 8 mph 68.9% 0.00 in 0 W/m2
01:04 62.6 °F 52 °F 30.12 in West 2.6 mph 7 mph 68.2% 0.00 in 0 W/m2
01:09 62.6 °F 52.3 °F 30.13 in SE 2.1 mph 3 mph 69% 0.00 in 0 W/m2
01:14 62.4 °F 52.2 °F 30.13 in SE 1.8 mph 2 mph 69.2% 0.00 in 0 W/m2
01:19 62.3 °F 52.5 °F 30.13 in WSW 2.8 mph 3 mph 70.1% 0.00 in 0 W/m2
01:24 62.3 °F 52.8 °F 30.13 in WSW 2.4 mph 3 mph 71% 0.00 in 0 W/m2
01:29 62.2 °F 52.7 °F 30.13 in WSW 2.8 mph 2.7 mph 71% 0.00 in 0 W/m2
01:34 62.1 °F 52.6 °F 30.13 in WSW 2.8 mph 4 mph 71% 0.00 in 0 W/m2
01:39 62 °F 52.7 °F 30.12 in WSW 3.3 mph 3.6 mph 71.5% 0.00 in 0 W/m2
01:44 61.9 °F 52.8 °F 30.12 in WSW 4.9 mph 4.5 mph 72% 0.00 in 0 W/m2
01:49 61.7 °F 52.6 °F 30.12 in SW 6.3 mph 7 mph 72% 0.00 in 0 W/m2
01:54 61.5 °F 52.4 °F 30.12 in WSW 6.4 mph 8 mph 72% 0.00 in 0 W/m2
01:59 61.3 °F 52.2 °F 30.12 in SW 7.8 mph 8 mph 71.8% 0.00 in 0 W/m2
02:04 61.1 °F 51.7 °F 30.12 in SSW 7.8 mph 9 mph 71.1% 0.00 in 0 W/m2
02:09 61 °F 51.9 °F 30.12 in SW 6.5 mph 9 mph 72% 0.00 in 0 W/m2
02:14 61 °F 51.7 °F 30.12 in WSW 4.9 mph 7 mph 71.4% 0.00 in 0 W/m2
02:19 61.1 °F 51.6 °F 30.12 in WSW 5.3 mph 7 mph 71% 0.00 in 0 W/m2
02:24 61.1 °F 51.6 °F 30.12 in WSW 4.2 mph 7 mph 71% 0.00 in 0 W/m2
02:29 61.1 °F 51.6 °F 30.12 in West 3.1 mph 5 mph 71% 0.00 in 0 W/m2
02:34 61 °F 51.4 °F 30.12 in WNW 2.5 mph 3 mph 70.8% 0.00 in 0 W/m2
02:39 60.8 °F 51 °F 30.12 in WNW 2.8 mph 3 mph 70% 0.00 in 0 W/m2
02:44 60.7 °F 50.9 °F 30.12 in WNW 3.6 mph 3.8 mph 70% 0.00 in 0 W/m2
02:49 60.5 °F 50.7 °F 30.12 in WNW 3.8 mph 4 mph 70% 0.00 in 0 W/m2
02:54 60.4 °F 50.6 °F 30.12 in West 3.6 mph 5 mph 70% 0.00 in 0 W/m2
02:59 60.4 °F 50.3 °F 30.12 in West 6 mph 5.7 mph 69.3% 0.00 in 0 W/m2
03:04 60.3 °F 50.1 °F 30.12 in West 6.9 mph 7 mph 69% 0.00 in 0 W/m2
03:09 60.1 °F 49.9 °F 30.12 in West 6.5 mph 7 mph 69% 0.00 in 0 W/m2
03:14 59.9 °F 49.5 °F 30.12 in West 5.5 mph 7 mph 68.5% 0.00 in 0 W/m2
03:19 59.8 °F 49.1 °F 30.12 in West 6.8 mph 6 mph 67.9% 0.00 in 0 W/m2
03:24 59.7 °F 48.7 °F 30.13 in West 5.5 mph 8 mph 67% 0.00 in 0 W/m2
03:29 59.7 °F 48.7 °F 30.13 in West 6.9 mph 7 mph 67% 0.00 in 0 W/m2
03:34 59.8 °F 49 °F 30.13 in West 7.4 mph 8 mph 67.5% 0.00 in 0 W/m2
03:39 60 °F 49.7 °F 30.13 in West 5.8 mph 8 mph 68.7% 0.00 in 0 W/m2
03:44 60.2 °F 50 °F 30.13 in WNW 6.5 mph 7 mph 69% 0.00 in 0 W/m2
03:49 60.5 °F 50.1 °F 30.13 in WNW 8.1 mph 7 mph 68.4% 0.00 in 0 W/m2
03:54 61.1 °F 50 °F 30.13 in West 9.5 mph 8.7 mph 66.6% 0.00 in 0 W/m2
03:59 61.5 °F 49.8 °F 30.13 in West 7.2 mph 10 mph 65.7% 0.00 in 0 W/m2
04:04 61.3 °F 49.6 °F 30.13 in West 5.2 mph 8 mph 65.5% 0.00 in 0 W/m2
04:09 61 °F 50 °F 30.13 in West 6.1 mph 7 mph 66.9% 0.00 in 0 W/m2
04:14 60.7 °F 49.8 °F 30.13 in West 6.1 mph 7 mph 67.2% 0.00 in 0 W/m2
04:19 60.5 °F 49.9 °F 30.13 in WSW 3.6 mph 8 mph 68% 0.00 in 0 W/m2
04:24 60.3 °F 49.9 °F 30.13 in SSE 5.1 mph 5.8 mph 68.7% 0.00 in 0 W/m2
04:29 60 °F 50.1 °F 30.13 in SSE 4 mph 7 mph 69.7% 0.00 in 0 W/m2
04:34 60.1 °F 50.7 °F 30.14 in North 4.2 mph 6 mph 70.9% 0.00 in 0 W/m2
04:39 60.2 °F 50.8 °F 30.14 in NW 3.1 mph 5 mph 71% 0.00 in 0 W/m2
04:44 60.2 °F 50.8 °F 30.13 in NE 3.6 mph 4.4 mph 71% 0.00 in 0 W/m2
04:49 60 °F 50.6 °F 30.13 in WNW 4.6 mph 7 mph 71% 0.00 in 0 W/m2
04:54 59.8 °F 50.7 °F 30.13 in SSE 3.6 mph 7 mph 71.7% 0.00 in 0 W/m2
04:59 59.6 °F 50.6 °F 30.13 in WNW 4.3 mph 6 mph 72% 0.00 in 0 W/m2
05:04 59.4 °F 50.4 °F 30.13 in WNW 1.6 mph 6 mph 72% 0.00 in 0 W/m2
05:09 59.1 °F 49.7 °F 30.13 in West 4.8 mph 5 mph 71.1% 0.00 in 0 W/m2
05:14 58.4 °F 48.8 °F 30.13 in West 3.7 mph 4.5 mph 70.3% 0.00 in 0 W/m2
05:19 57.9 °F 47.8 °F 30.13 in West 4.4 mph 4.6 mph 69% 0.00 in 0 W/m2
05:24 57.4 °F 47 °F 30.13 in West 4.5 mph 6 mph 68.2% 0.00 in 0 W/m2
05:29 57.2 °F 46.7 °F 30.13 in West 2.9 mph 6 mph 68.1% 0.00 in 0 W/m2
05:34 57.2 °F 46.9 °F 30.13 in West 5.1 mph 4.6 mph 68.4% 0.00 in 0 W/m2
05:39 57.2 °F 47.3 °F 30.13 in West 2.7 mph 6 mph 69.4% 0.00 in 0 W/m2
05:44 57.4 °F 47.7 °F 30.14 in West 2.6 mph 3 mph 69.8% 0.00 in 7 W/m2
05:49 57.5 °F 47.4 °F 30.14 in West 3.3 mph 3 mph 69% 0.00 in 11 W/m2
05:54 57.4 °F 47.3 °F 30.13 in West 2.3 mph 3 mph 69.1% 0.00 in 16 W/m2
05:59 57.4 °F 47.7 °F 30.13 in West 2.9 mph 2.3 mph 70% 0.00 in 25 W/m2
06:04 57.5 °F 47.6 °F 30.14 in West 2.3 mph 1.6 mph 69.6% 0.00 in 32 W/m2
06:09 57.6 °F 47.6 °F 30.14 in West 2.1 mph 2.1 mph 69.2% 0.00 in 40 W/m2
06:14 57.7 °F 48 °F 30.14 in West 3.5 mph 3 mph 69.9% 0.00 in 53 W/m2
06:19 57.7 °F 47.6 °F 30.14 in West 2.8 mph 3 mph 69% 0.00 in 69 W/m2
06:24 57.8 °F 47.7 °F 30.14 in West 3 mph 3 mph 69% 0.00 in 81 W/m2
06:29 57.8 °F 47.7 °F 30.14 in West 2.3 mph 1.8 mph 69% 0.00 in 95 W/m2
06:34 57.9 °F 48.1 °F 30.14 in West 1.3 mph 2 mph 69.6% 0.00 in 111 W/m2
06:39 58.2 °F 48.5 °F 30.14 in West 2.1 mph 2 mph 70% 0.00 in 111 W/m2
06:44 58.5 °F 48.7 °F 30.14 in West 2.3 mph 2 mph 69.8% 0.00 in 100 W/m2
06:49 58.8 °F 48.6 °F 30.14 in West 2.5 mph 2.1 mph 69% 0.00 in 176 W/m2
06:54 59.2 °F 49.3 °F 30.14 in West 2.8 mph 3 mph 69.8% 0.00 in 178 W/m2
06:59 59.7 °F 49.5 °F 30.14 in West 1.5 mph 3 mph 69% 0.00 in 137 W/m2
07:04 60.1 °F 50 °F 30.14 in West 2.1 mph 2 mph 69.1% 0.00 in 120 W/m2
07:09 60.6 °F 50.4 °F 30.14 in SW 2.3 mph 2 mph 69.1% 0.00 in 188 W/m2
07:14 61 °F 50.6 °F 30.14 in SW 2 mph 2 mph 68.4% 0.00 in 195 W/m2
07:19 61.5 °F 50.5 °F 30.14 in SW 2.3 mph 2 mph 67.2% 0.00 in 213 W/m2
07:24 62.1 °F 51.1 °F 30.14 in SW 2.6 mph 2.3 mph 67.2% 0.00 in 197 W/m2
07:29 62.6 °F 50.6 °F 30.14 in NNE 2.3 mph 3 mph 64.9% 0.00 in 227 W/m2
07:34 63.1 °F 50.4 °F 30.14 in SSW 3.3 mph 3 mph 63.1% 0.00 in 369 W/m2
07:39 64 °F 50.9 °F 30.14 in South 3.1 mph 4 mph 62.3% 0.00 in 401 W/m2
07:44 65 °F 51.1 °F 30.14 in South 3.8 mph 5 mph 60.6% 0.00 in 410 W/m2
07:49 65.9 °F 50.7 °F 30.14 in SSW 5.2 mph 6 mph 57.9% 0.00 in 417 W/m2
07:54 66.7 °F 50.6 °F 30.14 in South 4.6 mph 5 mph 56.3% 0.00 in 422 W/m2
07:59 67.5 °F 50.5 °F 30.14 in South 5.6 mph 5.9 mph 54.4% 0.00 in 431 W/m2
08:04 68 °F 49.7 °F 30.14 in SSE 6.5 mph 7 mph 51.8% 0.00 in 431 W/m2
08:09 68.3 °F 49.1 °F 30.14 in South 5 mph 6.1 mph 50.4% 0.00 in 329 W/m2
08:14 68.3 °F 49.4 °F 30.14 in South 5.3 mph 6 mph 50.9% 0.00 in 171 W/m2
08:19 68.4 °F 49.1 °F 30.14 in SSE 6.2 mph 6 mph 50.2% 0.00 in 462 W/m2
08:24 68.8 °F 49.8 °F 30.14 in SSE 6.3 mph 8 mph 50.8% 0.00 in 476 W/m2
08:29 69.2 °F 50.4 °F 30.14 in SSE 5.3 mph 8 mph 51.2% 0.00 in 490 W/m2
08:34 69.7 °F 50.4 °F 30.14 in SSE 5.7 mph 6.4 mph 50.4% 0.00 in 510 W/m2
08:39 70.4 °F 50.4 °F 30.14 in South 5 mph 7 mph 49.2% 0.00 in 522 W/m2
08:44 71.1 °F 50.1 °F 30.14 in SSE 7.1 mph 7.4 mph 47.5% 0.00 in 541 W/m2
08:49 71.5 °F 50.4 °F 30.14 in SSE 6.3 mph 9 mph 47.2% 0.00 in 548 W/m2
08:54 72.2 °F 50.3 °F 30.14 in SSE 5.4 mph 7 mph 46% 0.00 in 559 W/m2
08:59 72.9 °F 50.8 °F 30.14 in SSW 5.2 mph 6 mph 45.9% 0.00 in 571 W/m2
09:04 73.5 °F 50.4 °F 30.14 in SW 4.6 mph 6 mph 44.2% 0.00 in 585 W/m2
09:09 74.1 °F 50.6 °F 30.14 in SSW 4.2 mph 7 mph 43.8% 0.00 in 603 W/m2
09:14 74.7 °F 50.1 °F 30.13 in SW 4.2 mph 6 mph 42.1% 0.00 in 615 W/m2
09:19 75.3 °F 49.3 °F 30.13 in SW 4.8 mph 5.3 mph 40.1% 0.00 in 626 W/m2
09:24 76 °F 50.1 °F 30.13 in SSW 5 mph 4.2 mph 40.3% 0.00 in 645 W/m2
09:29 76.4 °F 49.9 °F 30.13 in SW 3.8 mph 6 mph 39.3% 0.00 in 656 W/m2
09:34 76.6 °F 50.3 °F 30.13 in SW 4.1 mph 5 mph 39.8% 0.00 in 670 W/m2
09:39 76.5 °F 50.2 °F 30.13 in ESE 7.3 mph 7.9 mph 39.8% 0.00 in 680 W/m2
09:44 76.1 °F 49.3 °F 30.13 in SSE 5.5 mph 8 mph 38.9% 0.00 in 693 W/m2
09:49 76.4 °F 50.4 °F 30.13 in SE 3.5 mph 7 mph 40.1% 0.00 in 708 W/m2
09:54 76.8 °F 50.9 °F 30.13 in ESE 5.3 mph 6.3 mph 40.4% 0.00 in 721 W/m2
09:59 76.7 °F 50.3 °F 30.13 in ESE 7.3 mph 8 mph 39.7% 0.00 in 729 W/m2
10:04 76.6 °F 50.5 °F 30.13 in ESE 4.8 mph 9 mph 40% 0.00 in 742 W/m2
10:09 76.9 °F 51.3 °F 30.13 in SE 6.5 mph 7.3 mph 40.9% 0.00 in 752 W/m2
10:14 77.1 °F 51.4 °F 30.13 in SE 8.3 mph 9 mph 40.7% 0.00 in 766 W/m2
10:19 77.7 °F 50.9 °F 30.13 in South 5.7 mph 10 mph 39.2% 0.00 in 775 W/m2
10:24 78.7 °F 51.1 °F 30.13 in SSE 5.2 mph 7 mph 38.2% 0.00 in 786 W/m2
10:29 79 °F 51.9 °F 30.13 in SE 6 mph 7 mph 39% 0.00 in 795 W/m2
10:34 79 °F 51.5 °F 30.13 in South 5.7 mph 8 mph 38.4% 0.00 in 809 W/m2
10:39 79.5 °F 51.3 °F 30.13 in South 6.1 mph 7 mph 37.4% 0.00 in 819 W/m2
10:44 80.2 °F 50.8 °F 30.12 in SSE 4.9 mph 5.2 mph 36% 0.00 in 830 W/m2
10:49 80.5 °F 51.1 °F 30.12 in SE 4 mph 7 mph 36% 0.00 in 837 W/m2
10:54 80.4 °F 51.2 °F 30.12 in ESE 7.1 mph 8.5 mph 36.2% 0.00 in 847 W/m2
10:59 80.1 °F 50.3 °F 30.12 in SE 9.4 mph 9 mph 35.4% 0.00 in 856 W/m2
11:04 80.2 °F 50.1 °F 30.12 in SE 9.8 mph 12 mph 35% 0.00 in 863 W/m2
11:09 80.2 °F 50.8 °F 30.12 in SE 7.7 mph 12 mph 36% 0.00 in 868 W/m2
11:14 80.7 °F 51.1 °F 30.12 in SSE 7.3 mph 9 mph 35.8% 0.00 in 879 W/m2
11:19 81.7 °F 50.4 °F 30.12 in South 10.6 mph 12 mph 33.8% 0.00 in 886 W/m2
11:24 82.1 °F 50.3 °F 30.12 in SSE 10.8 mph 12 mph 33.3% 0.00 in 902 W/m2
11:29 82 °F 50.1 °F 30.12 in South 10.8 mph 8.8 mph 33% 0.00 in 912 W/m2
11:34 82.4 °F 50.4 °F 30.12 in SSE 9.5 mph 14 mph 33% 0.00 in 926 W/m2
11:39 82.9 °F 50.3 °F 30.12 in South 10.3 mph 12 mph 32.3% 0.00 in 946 W/m2
11:44 83.2 °F 49.6 °F 30.12 in SSE 12 mph 16 mph 31.2% 0.00 in 986 W/m2
11:49 83.5 °F 49.9 °F 30.11 in South 10 mph 13 mph 31.3% 0.00 in 1011 W/m2
11:54 83.9 °F 49.7 °F 30.11 in SSE 8.6 mph 12 mph 30.6% 0.00 in 1053 W/m2
11:59 83.8 °F 48.7 °F 30.11 in SE 9.9 mph 10 mph 29.6% 0.00 in 1053 W/m2
12:04 83.9 °F 48.9 °F 30.11 in South 7.8 mph 10 mph 29.7% 0.00 in 1039 W/m2
12:09 84.4 °F 48.8 °F 30.11 in SSE 8 mph 9 mph 29.2% 0.00 in 1028 W/m2
12:14 85 °F 47.7 °F 30.11 in South 7.5 mph 10 mph 27.4% 0.00 in 981 W/m2
12:19 85.3 °F 47.6 °F 30.11 in SSE 5.9 mph 9 mph 27.1% 0.00 in 981 W/m2
12:24 86.2 °F 47.8 °F 30.11 in SW 4.6 mph 9 mph 26.5% 0.00 in 1037 W/m2
12:29 87.3 °F 47.9 °F 30.11 in SW 5.2 mph 7 mph 25.7% 0.00 in 942 W/m2
12:34 87.8 °F 48.2 °F 30.11 in SSE 4 mph 7 mph 25.6% 0.00 in 796 W/m2
12:39 88.3 °F 49.1 °F 30.11 in NNE 2.3 mph 5 mph 26% 0.00 in 1011 W/m2
12:44 89.3 °F 48.5 °F 30.11 in WSW 2.9 mph 3.1 mph 24.6% 0.00 in 1069 W/m2
12:49 89.5 °F 46.5 °F 30.10 in WNW 4.1 mph 4 mph 22.8% 0.00 in 830 W/m2
12:54 89.4 °F 47.5 °F 30.10 in SW 3 mph 6 mph 23.7% 0.00 in 947 W/m2
12:59 90 °F 47.6 °F 30.10 in SW 3.9 mph 7 mph 23.3% 0.00 in 404 W/m2
13:04 89.6 °F 47.3 °F 30.10 in WSW 4.2 mph 6 mph 23.4% 0.00 in 378 W/m2
13:09 88.7 °F 47.8 °F 30.10 in SSW 5.5 mph 6.9 mph 24.5% 0.00 in 329 W/m2
13:14 87.7 °F 47.8 °F 30.10 in SSW 6.5 mph 8 mph 25.3% 0.00 in 417 W/m2
13:19 87.1 °F 48.1 °F 30.10 in SSW 4.4 mph 8 mph 26% 0.00 in 960 W/m2
13:24 87.7 °F 48.4 °F 30.10 in SW 3.7 mph 5 mph 25.9% 0.00 in 1041 W/m2
13:29 88.6 °F 48.9 °F 30.10 in SW 5.1 mph 6 mph 25.6% 0.00 in 1037 W/m2
13:34 88.9 °F 47.4 °F 30.10 in WSW 6.3 mph 7 mph 24% 0.00 in 1102 W/m2
13:39 89.6 °F 48.1 °F 30.09 in WSW 5.4 mph 5.5 mph 24.1% 0.00 in 1216 W/m2
13:44 89.5 °F 47.2 °F 30.09 in SW 5.9 mph 8 mph 23.4% 0.00 in 1216 W/m2
13:49 88.9 °F 46.5 °F 30.09 in SSE 6.7 mph 9 mph 23.2% 0.00 in 320 W/m2
13:54 88.2 °F 47.1 °F 30.09 in SSE 5.4 mph 8 mph 24.2% 0.00 in 346 W/m2
13:59 87.5 °F 46.6 °F 30.09 in SE 7.1 mph 7 mph 24.3% 0.00 in 357 W/m2
14:04 87.3 °F 47.1 °F 30.09 in SSE 4.3 mph 9 mph 24.9% 0.00 in 1106 W/m2
14:09 88.1 °F 47.7 °F 30.09 in ESE 8.3 mph 8.6 mph 24.8% 0.00 in 1123 W/m2
14:14 88.4 °F 47.7 °F 30.09 in East 8.9 mph 12 mph 24.6% 0.00 in 1248 W/m2
14:19 88.4 °F 46.1 °F 30.09 in East 8.9 mph 12 mph 23.2% 0.00 in 1294 W/m2
14:24 89.6 °F 48 °F 30.09 in ESE 7.3 mph 12 mph 24% 0.00 in 1222 W/m2
14:29 88.8 °F 46.9 °F 30.09 in ENE 9.3 mph 12 mph 23.6% 0.00 in 575 W/m2
14:34 87.8 °F 46.7 °F 30.09 in ENE 9 mph 13 mph 24.2% 0.00 in 575 W/m2
14:39 87.3 °F 46.4 °F 30.08 in NNE 8.9 mph 9.5 mph 24.3% 0.00 in 605 W/m2
14:44 87 °F 46.6 °F 30.09 in NE 5.4 mph 12 mph 24.7% 0.00 in 459 W/m2
14:49 86.9 °F 48.4 °F 30.09 in NNE 12.6 mph 13.7 mph 26.5% 0.00 in 343 W/m2
14:54 85.8 °F 51.5 °F 30.09 in North 15.4 mph 17 mph 30.9% 0.00 in 313 W/m2
14:59 84.5 °F 51.4 °F 30.09 in NNE 16.5 mph 20 mph 32% 0.00 in 408 W/m2
15:04 83.8 °F 51.2 °F 30.09 in NNE 13 mph 21 mph 32.6% 0.00 in 408 W/m2
15:09 83.5 °F 51.3 °F 30.10 in North 17.8 mph 17 mph 32.9% 0.00 in 380 W/m2
15:14 83.1 °F 50.9 °F 30.09 in North 16.8 mph 23 mph 33% 0.00 in 353 W/m2
15:19 82.9 °F 50.1 °F 30.09 in North 16.6 mph 20 mph 32.1% 0.00 in 503 W/m2
15:24 82.6 °F 47.1 °F 30.10 in North 20 mph 22 mph 29% 0.00 in 503 W/m2
15:29 82.3 °F 46.8 °F 30.10 in NNW 17.4 mph 23 mph 29% 0.00 in 399 W/m2
15:34 82 °F 45.5 °F 30.10 in NNW 17.9 mph 20 mph 27.8% 0.00 in 374 W/m2
15:39 81.7 °F 44.8 °F 30.10 in NNW 17.3 mph 22 mph 27.4% 0.00 in 334 W/m2
15:44 81.4 °F 45 °F 30.10 in NNW 15 mph 20 mph 27.8% 0.00 in 274 W/m2
15:49 81.3 °F 45.1 °F 30.10 in NNW 11.7 mph 16 mph 28% 0.00 in 206 W/m2
15:54 81.2 °F 45 °F 30.09 in NNW 9 mph 14 mph 28% 0.00 in 155 W/m2
15:59 81.3 °F 45.7 °F 30.09 in NW 9.1 mph 8.4 mph 28.7% 0.00 in 156 W/m2
16:04 81.2 °F 45 °F 30.09 in WNW 11.1 mph 10 mph 28% 0.00 in 186 W/m2
16:09 81.3 °F 43.9 °F 30.09 in WNW 8.6 mph 12 mph 26.8% 0.00 in 220 W/m2
16:14 82.1 °F 40.6 °F 30.08 in WNW 10.2 mph 10.1 mph 23% 0.00 in 278 W/m2
16:19 83 °F 40.2 °F 30.08 in NW 9.7 mph 12 mph 22% 0.00 in 578 W/m2
16:24 83.9 °F 41.3 °F 30.08 in NW 4.4 mph 10 mph 22.3% 0.00 in 578 W/m2
16:29 84.8 °F 42.2 °F 30.08 in WNW 9.6 mph 9 mph 22.4% 0.00 in 719 W/m2
16:34 85.6 °F 41.6 °F 30.08 in WNW 10.3 mph 12 mph 21.4% 0.00 in 707 W/m2
16:39 86.2 °F 42 °F 30.07 in West 10.4 mph 12 mph 21.3% 0.00 in 679 W/m2
16:44 86.6 °F 43.8 °F 30.07 in West 14.4 mph 15 mph 22.5% 0.00 in 642 W/m2
16:49 86.6 °F 44.6 °F 30.07 in West 14.5 mph 16 mph 23.2% 0.00 in 591 W/m2
16:54 86.4 °F 45 °F 30.07 in West 14.4 mph 17 mph 23.7% 0.00 in 587 W/m2
16:59 86.1 °F 44.2 °F 30.07 in West 13.5 mph 17 mph 23.2% 0.00 in 582 W/m2
17:04 86.3 °F 45.4 °F 30.07 in West 14.4 mph 15 mph 24.1% 0.00 in 571 W/m2
17:09 86.2 °F 45.2 °F 30.07 in West 16.2 mph 17 mph 24.1% 0.00 in 534 W/m2
17:14 86.2 °F 44.5 °F 30.07 in West 14.4 mph 12.4 mph 23.4% 0.00 in 508 W/m2
17:19 85.9 °F 44 °F 30.08 in WSW 11.5 mph 16 mph 23.1% 0.00 in 185 W/m2
17:24 85.8 °F 44.4 °F 30.08 in West 10.2 mph 13 mph 23.7% 0.00 in 446 W/m2
17:29 86.2 °F 44.1 °F 30.07 in WSW 12.6 mph 12 mph 23.1% 0.00 in 411 W/m2
17:34 86.3 °F 45.1 °F 30.07 in WSW 13.4 mph 15 mph 23.8% 0.00 in 374 W/m2
17:39 86.2 °F 44.9 °F 30.07 in SW 13.3 mph 11.3 mph 23.8% 0.00 in 346 W/m2
17:44 85.6 °F 45.5 °F 30.07 in SW 14.9 mph 18 mph 24.8% 0.00 in 373 W/m2
17:49 85.3 °F 45.6 °F 30.07 in SW 11.3 mph 15 mph 25.2% 0.00 in 376 W/m2
17:54 85.5 °F 46.7 °F 30.07 in West 8.9 mph 15 mph 26% 0.00 in 369 W/m2
17:59 85.8 °F 45.9 °F 30.07 in SW 12.8 mph 12.2 mph 25% 0.00 in 360 W/m2
18:04 85.6 °F 45.5 °F 30.07 in SW 15 mph 17 mph 24.7% 0.00 in 355 W/m2
18:09 85.6 °F 45.7 °F 30.07 in WSW 13.2 mph 17 mph 25% 0.00 in 336 W/m2
18:14 85.6 °F 45.7 °F 30.07 in SW 11.7 mph 15 mph 25% 0.00 in 304 W/m2
18:19 85.7 °F 45.8 °F 30.07 in SW 11.6 mph 14 mph 25% 0.00 in 276 W/m2
18:24 85.7 °F 45.8 °F 30.07 in WSW 11.5 mph 14 mph 25% 0.00 in 283 W/m2
18:29 85.8 °F 45.5 °F 30.07 in WSW 12.1 mph 14 mph 24.6% 0.00 in 292 W/m2
18:34 85.4 °F 45 °F 30.07 in WSW 11 mph 15 mph 24.5% 0.00 in 292 W/m2
18:39 84.9 °F 45.3 °F 30.07 in WSW 9.4 mph 8.5 mph 25.2% 0.00 in 295 W/m2
18:44 84.7 °F 45.2 °F 30.07 in WSW 8.8 mph 10 mph 25.2% 0.00 in 292 W/m2
18:49 84.6 °F 45.4 °F 30.07 in WSW 9.4 mph 9 mph 25.4% 0.00 in 278 W/m2
18:54 84.8 °F 46.2 °F 30.07 in WSW 5.6 mph 12 mph 26.1% 0.00 in 264 W/m2
18:59 85.2 °F 46.6 °F 30.07 in WSW 5.5 mph 6 mph 26.2% 0.00 in 250 W/m2
19:04 85.7 °F 45.6 °F 30.07 in SW 7.7 mph 6.2 mph 24.8% 0.00 in 227 W/m2
19:09 85.8 °F 45.1 °F 30.07 in SW 7.5 mph 6.8 mph 24.2% 0.00 in 214 W/m2
19:14 85.7 °F 45.9 °F 30.07 in SW 7.2 mph 9 mph 25.1% 0.00 in 199 W/m2
19:19 85.8 °F 46 °F 30.07 in SW 5.5 mph 8 mph 25.1% 0.00 in 165 W/m2
19:24 85.9 °F 46 °F 30.07 in SW 5 mph 7 mph 25% 0.00 in 141 W/m2
19:29 86 °F 45.7 °F 30.07 in SSW 4.9 mph 6 mph 24.6% 0.00 in 123 W/m2
19:34 85.9 °F 45.9 °F 30.07 in SSW 4.5 mph 7 mph 24.9% 0.00 in 114 W/m2
19:39 85.7 °F 46.3 °F 30.07 in SSW 4.1 mph 5 mph 25.5% 0.00 in 102 W/m2
19:44 85.4 °F 46.6 °F 30.07 in SSW 5.2 mph 5.1 mph 26% 0.00 in 86 W/m2
19:49 85 °F 46.9 °F 30.07 in South 4.9 mph 7 mph 26.5% 0.00 in 69 W/m2
19:54 84.4 °F 48.1 °F 30.07 in South 5.8 mph 6 mph 28.3% 0.00 in 49 W/m2
19:59 83.8 °F 48.8 °F 30.07 in South 3.4 mph 6 mph 29.7% 0.00 in 35 W/m2
20:04 83.3 °F 49.8 °F 30.07 in SSW 3.7 mph 5 mph 31.3% 0.00 in 21 W/m2
20:09 82.8 °F 49.8 °F 30.07 in SSW 4.4 mph 5 mph 31.8% 0.00 in 16 W/m2
20:14 82.1 °F 49.4 °F 30.07 in South 7.2 mph 7 mph 32% 0.00 in 12 W/m2
20:19 81.3 °F 49.5 °F 30.07 in South 7.4 mph 9 mph 33.1% 0.00 in 11 W/m2
20:24 80.5 °F 49.5 °F 30.07 in South 8.4 mph 8 mph 34% 0.00 in 7 W/m2
20:29 79.8 °F 49.3 °F 30.07 in South 7.2 mph 6.4 mph 34.5% 0.00 in 5 W/m2
20:34 79.3 °F 49.4 °F 30.07 in South 4.4 mph 8 mph 35.2% 0.00 in 0 W/m2
20:39 78.9 °F 49.7 °F 30.07 in South 4.4 mph 5 mph 36% 0.00 in 0 W/m2
20:44 78.5 °F 49.6 °F 30.07 in South 2.9 mph 5 mph 36.4% 0.00 in 0 W/m2
20:49 78.2 °F 49.8 °F 30.07 in ESE 3.5 mph 4 mph 37% 0.00 in 0 W/m2
20:54 77.5 °F 49.6 °F 30.08 in NNE 4.1 mph 5 mph 37.6% 0.00 in 0 W/m2
20:59 76.7 °F 49.3 °F 30.08 in ENE 6.7 mph 9.6 mph 38.2% 0.00 in 0 W/m2
21:04 76 °F 48.6 °F 30.09 in East 8.3 mph 12 mph 38% 0.00 in 0 W/m2
21:09 75.9 °F 48.4 °F 30.09 in ESE 8.2 mph 10.3 mph 37.9% 0.00 in 0 W/m2
21:14 76 °F 47.9 °F 30.09 in SE 9 mph 12 mph 37% 0.00 in 0 W/m2
21:19 76.2 °F 48.1 °F 30.10 in East 4.2 mph 12 mph 37.1% 0.00 in 0 W/m2
21:24 76.2 °F 48.7 °F 30.10 in ESE 5.5 mph 6 mph 38% 0.00 in 0 W/m2
21:29 76.1 °F 48.6 °F 30.10 in SSE 5.2 mph 7 mph 38% 0.00 in 0 W/m2
21:34 75.9 °F 49.2 °F 30.11 in WNW 6.4 mph 7 mph 39.1% 0.00 in 0 W/m2
21:39 75.3 °F 49.3 °F 30.10 in NW 4.5 mph 8 mph 40% 0.00 in 0 W/m2
21:44 75 °F 49.2 °F 30.10 in WNW 2.3 mph 8 mph 40.4% 0.00 in 0 W/m2
21:49 74.4 °F 49.4 °F 30.10 in NNW 7.5 mph 7.5 mph 41.4% 0.00 in 0 W/m2
21:54 73.7 °F 49.8 °F 30.11 in NNW 7.2 mph 12 mph 42.9% 0.00 in 0 W/m2
21:59 72.9 °F 50.2 °F 30.11 in NNW 8.4 mph 8 mph 44.8% 0.00 in 0 W/m2
22:04 72.2 °F 50 °F 30.12 in North 8 mph 9 mph 45.5% 0.00 in 0 W/m2
22:09 71.7 °F 50.1 °F 30.12 in NNW 8 mph 10 mph 46.4% 0.00 in 0 W/m2
22:14 71.5 °F 50.2 °F 30.12 in North 7 mph 9 mph 47% 0.00 in 0 W/m2
22:19 71.4 °F 50.1 °F 30.12 in NNW 9.1 mph 9 mph 47% 0.00 in 0 W/m2
22:24 71.3 °F 50.5 °F 30.12 in NNW 11 mph 12 mph 47.9% 0.00 in 0 W/m2
22:29 71.1 °F 50.4 °F 30.12 in NNW 11.1 mph 12 mph 48% 0.00 in 0 W/m2
22:34 71 °F 50.3 °F 30.12 in NNW 9.3 mph 12 mph 48% 0.00 in 0 W/m2
22:39 70.9 °F 50.3 °F 30.12 in North 7.2 mph 10 mph 48.2% 0.00 in 0 W/m2
22:44 70.8 °F 50.5 °F 30.12 in NNW 6 mph 9 mph 48.7% 0.00 in 0 W/m2
22:49 70.7 °F 50.6 °F 30.12 in NW 6.9 mph 8 mph 49% 0.00 in 0 W/m2
22:54 70.5 °F 50.4 °F 30.12 in NW 4.5 mph 8 mph 49% 0.00 in 0 W/m2
22:59 70 °F 50 °F 30.12 in WNW 3.5 mph 5 mph 49% 0.00 in 0 W/m2
Rockcreek-Hillcrest Superior, Colorado, USA
Compliments of Weather Underground - 2 mb